sensor_id;sensor_type;location;lat;lon;timestamp;P1;durP1;ratioP1;P2;durP2;ratioP2
17201;SDS011;8717;53.588;10.176;2022-10-16T00:00:33;7.60;;;5.60;;
17201;SDS011;8717;53.588;10.176;2022-10-16T00:03:03;6.27;;;5.63;;
17201;SDS011;8717;53.588;10.176;2022-10-16T00:05:30;9.07;;;5.50;;
17201;SDS011;8717;53.588;10.176;2022-10-16T00:07:58;8.63;;;6.07;;
17201;SDS011;8717;53.588;10.176;2022-10-16T00:10:24;7.20;;;5.80;;
17201;SDS011;8717;53.588;10.176;2022-10-16T00:12:51;6.77;;;6.07;;
17201;SDS011;8717;53.588;10.176;2022-10-16T00:15:18;7.27;;;6.23;;
17201;SDS011;8717;53.588;10.176;2022-10-16T00:17:45;8.97;;;6.00;;
17201;SDS011;8717;53.588;10.176;2022-10-16T00:20:13;9.90;;;6.67;;
17201;SDS011;8717;53.588;10.176;2022-10-16T00:22:39;7.47;;;5.80;;
17201;SDS011;8717;53.588;10.176;2022-10-16T00:25:06;8.27;;;6.40;;
17201;SDS011;8717;53.588;10.176;2022-10-16T00:27:33;7.37;;;6.67;;
17201;SDS011;8717;53.588;10.176;2022-10-16T00:30:00;8.00;;;6.33;;
17201;SDS011;8717;53.588;10.176;2022-10-16T00:32:27;7.07;;;6.37;;
17201;SDS011;8717;53.588;10.176;2022-10-16T00:34:54;8.40;;;6.60;;
17201;SDS011;8717;53.588;10.176;2022-10-16T00:37:22;7.90;;;6.30;;
17201;SDS011;8717;53.588;10.176;2022-10-16T00:39:48;6.10;;;5.50;;
17201;SDS011;8717;53.588;10.176;2022-10-16T00:42:15;9.07;;;6.27;;
17201;SDS011;8717;53.588;10.176;2022-10-16T00:44:45;8.93;;;6.03;;
17201;SDS011;8717;53.588;10.176;2022-10-16T00:47:18;11.43;;;7.03;;
17201;SDS011;8717;53.588;10.176;2022-10-16T00:49:49;10.73;;;6.17;;
17201;SDS011;8717;53.588;10.176;2022-10-16T00:52:17;7.77;;;5.63;;
17201;SDS011;8717;53.588;10.176;2022-10-16T00:54:46;7.77;;;6.07;;
17201;SDS011;8717;53.588;10.176;2022-10-16T00:57:15;8.00;;;5.77;;
17201;SDS011;8717;53.588;10.176;2022-10-16T00:59:42;8.17;;;6.10;;
17201;SDS011;8717;53.588;10.176;2022-10-16T01:02:11;8.03;;;6.30;;
17201;SDS011;8717;53.588;10.176;2022-10-16T01:04:40;7.47;;;6.17;;
17201;SDS011;8717;53.588;10.176;2022-10-16T01:07:10;7.80;;;6.27;;
17201;SDS011;8717;53.588;10.176;2022-10-16T01:09:45;9.47;;;6.40;;
17201;SDS011;8717;53.588;10.176;2022-10-16T01:12:18;9.33;;;6.33;;
17201;SDS011;8717;53.588;10.176;2022-10-16T01:14:53;8.07;;;6.67;;
17201;SDS011;8717;53.588;10.176;2022-10-16T01:17:22;10.17;;;6.30;;
17201;SDS011;8717;53.588;10.176;2022-10-16T01:20:01;8.03;;;6.20;;
17201;SDS011;8717;53.588;10.176;2022-10-16T01:22:37;7.37;;;6.20;;
17201;SDS011;8717;53.588;10.176;2022-10-16T01:25:11;7.77;;;6.20;;
17201;SDS011;8717;53.588;10.176;2022-10-16T01:27:46;6.50;;;5.60;;
17201;SDS011;8717;53.588;10.176;2022-10-16T01:30:16;8.20;;;6.30;;
17201;SDS011;8717;53.588;10.176;2022-10-16T01:32:48;6.53;;;5.67;;
17201;SDS011;8717;53.588;10.176;2022-10-16T01:35:19;5.80;;;4.97;;
17201;SDS011;8717;53.588;10.176;2022-10-16T01:37:50;8.50;;;5.77;;
17201;SDS011;8717;53.588;10.176;2022-10-16T01:40:21;7.40;;;4.20;;
17201;SDS011;8717;53.588;10.176;2022-10-16T01:42:54;4.73;;;3.90;;
17201;SDS011;8717;53.588;10.176;2022-10-16T01:45:26;6.10;;;3.97;;
17201;SDS011;8717;53.588;10.176;2022-10-16T01:47:56;5.13;;;3.63;;
17201;SDS011;8717;53.588;10.176;2022-10-16T01:50:24;6.57;;;3.60;;
17201;SDS011;8717;53.588;10.176;2022-10-16T01:52:52;4.67;;;3.70;;
17201;SDS011;8717;53.588;10.176;2022-10-16T01:55:22;7.43;;;3.70;;
17201;SDS011;8717;53.588;10.176;2022-10-16T01:57:56;4.77;;;3.70;;
17201;SDS011;8717;53.588;10.176;2022-10-16T02:00:25;6.67;;;3.20;;
17201;SDS011;8717;53.588;10.176;2022-10-16T02:02:53;6.40;;;3.47;;
17201;SDS011;8717;53.588;10.176;2022-10-16T02:05:22;5.40;;;3.40;;
17201;SDS011;8717;53.588;10.176;2022-10-16T02:07:52;7.13;;;3.57;;
17201;SDS011;8717;53.588;10.176;2022-10-16T02:10:19;5.53;;;3.40;;
17201;SDS011;8717;53.588;10.176;2022-10-16T02:12:48;6.40;;;3.50;;
17201;SDS011;8717;53.588;10.176;2022-10-16T02:15:21;6.40;;;3.53;;
17201;SDS011;8717;53.588;10.176;2022-10-16T02:17:48;5.53;;;3.17;;
17201;SDS011;8717;53.588;10.176;2022-10-16T02:20:15;5.97;;;3.57;;
17201;SDS011;8717;53.588;10.176;2022-10-16T02:22:42;6.67;;;3.20;;
17201;SDS011;8717;53.588;10.176;2022-10-16T02:25:15;5.50;;;3.20;;
17201;SDS011;8717;53.588;10.176;2022-10-16T02:27:48;3.00;;;2.70;;
17201;SDS011;8717;53.588;10.176;2022-10-16T02:30:21;5.20;;;3.17;;
17201;SDS011;8717;53.588;10.176;2022-10-16T02:32:54;4.23;;;2.80;;
17201;SDS011;8717;53.588;10.176;2022-10-16T02:35:24;5.60;;;2.80;;
17201;SDS011;8717;53.588;10.176;2022-10-16T02:37:52;3.87;;;2.80;;
17201;SDS011;8717;53.588;10.176;2022-10-16T02:40:20;3.60;;;2.57;;
17201;SDS011;8717;53.588;10.176;2022-10-16T02:42:49;3.83;;;2.70;;
17201;SDS011;8717;53.588;10.176;2022-10-16T02:45:17;5.37;;;2.63;;
17201;SDS011;8717;53.588;10.176;2022-10-16T02:47:46;5.23;;;2.27;;
17201;SDS011;8717;53.588;10.176;2022-10-16T02:50:13;4.83;;;2.10;;
17201;SDS011;8717;53.588;10.176;2022-10-16T02:52:40;3.47;;;2.33;;
17201;SDS011;8717;53.588;10.176;2022-10-16T02:55:07;5.77;;;2.47;;
17201;SDS011;8717;53.588;10.176;2022-10-16T02:57:34;3.27;;;2.00;;
17201;SDS011;8717;53.588;10.176;2022-10-16T03:00:02;3.73;;;2.30;;
17201;SDS011;8717;53.588;10.176;2022-10-16T03:02:29;3.37;;;2.20;;
17201;SDS011;8717;53.588;10.176;2022-10-16T03:04:57;4.77;;;2.23;;
17201;SDS011;8717;53.588;10.176;2022-10-16T03:07:24;3.57;;;2.10;;
17201;SDS011;8717;53.588;10.176;2022-10-16T03:09:50;2.50;;;2.00;;
17201;SDS011;8717;53.588;10.176;2022-10-16T03:12:17;3.50;;;1.90;;
17201;SDS011;8717;53.588;10.176;2022-10-16T03:14:44;2.50;;;1.80;;
17201;SDS011;8717;53.588;10.176;2022-10-16T03:17:11;2.20;;;1.73;;
17201;SDS011;8717;53.588;10.176;2022-10-16T03:19:38;3.73;;;1.90;;
17201;SDS011;8717;53.588;10.176;2022-10-16T03:22:06;3.37;;;1.90;;
17201;SDS011;8717;53.588;10.176;2022-10-16T03:24:33;2.43;;;1.80;;
17201;SDS011;8717;53.588;10.176;2022-10-16T03:27:00;3.97;;;1.93;;
17201;SDS011;8717;53.588;10.176;2022-10-16T03:29:27;3.67;;;1.80;;
17201;SDS011;8717;53.588;10.176;2022-10-16T03:31:54;3.40;;;2.10;;
17201;SDS011;8717;53.588;10.176;2022-10-16T03:34:21;5.93;;;1.90;;
17201;SDS011;8717;53.588;10.176;2022-10-16T03:36:48;3.70;;;1.87;;
17201;SDS011;8717;53.588;10.176;2022-10-16T03:39:16;2.60;;;1.90;;
17201;SDS011;8717;53.588;10.176;2022-10-16T03:41:42;3.83;;;1.77;;
17201;SDS011;8717;53.588;10.176;2022-10-16T03:44:09;3.80;;;2.10;;
17201;SDS011;8717;53.588;10.176;2022-10-16T03:46:36;6.87;;;2.20;;
17201;SDS011;8717;53.588;10.176;2022-10-16T03:49:02;5.27;;;1.97;;
17201;SDS011;8717;53.588;10.176;2022-10-16T03:51:29;4.37;;;1.83;;
17201;SDS011;8717;53.588;10.176;2022-10-16T03:53:56;3.97;;;2.00;;
17201;SDS011;8717;53.588;10.176;2022-10-16T03:56:24;6.57;;;1.93;;
17201;SDS011;8717;53.588;10.176;2022-10-16T03:58:51;4.17;;;1.70;;
17201;SDS011;8717;53.588;10.176;2022-10-16T04:01:18;7.17;;;2.13;;
17201;SDS011;8717;53.588;10.176;2022-10-16T04:03:44;2.80;;;1.60;;
17201;SDS011;8717;53.588;10.176;2022-10-16T04:06:11;2.67;;;1.83;;
17201;SDS011;8717;53.588;10.176;2022-10-16T04:08:38;5.30;;;1.80;;
17201;SDS011;8717;53.588;10.176;2022-10-16T04:11:04;3.37;;;1.80;;
17201;SDS011;8717;53.588;10.176;2022-10-16T04:13:32;3.67;;;1.80;;
17201;SDS011;8717;53.588;10.176;2022-10-16T04:15:59;2.90;;;1.80;;
17201;SDS011;8717;53.588;10.176;2022-10-16T04:18:26;7.67;;;1.97;;
17201;SDS011;8717;53.588;10.176;2022-10-16T04:20:53;4.27;;;2.10;;
17201;SDS011;8717;53.588;10.176;2022-10-16T04:23:19;2.70;;;1.70;;
17201;SDS011;8717;53.588;10.176;2022-10-16T04:25:48;3.80;;;1.60;;
17201;SDS011;8717;53.588;10.176;2022-10-16T04:28:14;3.13;;;1.83;;
17201;SDS011;8717;53.588;10.176;2022-10-16T04:30:42;5.43;;;2.10;;
17201;SDS011;8717;53.588;10.176;2022-10-16T04:33:09;2.70;;;1.53;;
17201;SDS011;8717;53.588;10.176;2022-10-16T04:35:36;4.40;;;1.50;;
17201;SDS011;8717;53.588;10.176;2022-10-16T04:38:02;3.53;;;1.60;;
17201;SDS011;8717;53.588;10.176;2022-10-16T04:40:29;5.53;;;1.70;;
17201;SDS011;8717;53.588;10.176;2022-10-16T04:42:57;4.73;;;1.83;;
17201;SDS011;8717;53.588;10.176;2022-10-16T04:45:24;3.63;;;1.83;;
17201;SDS011;8717;53.588;10.176;2022-10-16T04:47:52;4.37;;;1.83;;
17201;SDS011;8717;53.588;10.176;2022-10-16T04:50:22;4.20;;;1.80;;
17201;SDS011;8717;53.588;10.176;2022-10-16T04:53:03;6.57;;;1.70;;
17201;SDS011;8717;53.588;10.176;2022-10-16T04:55:30;5.40;;;1.97;;
17201;SDS011;8717;53.588;10.176;2022-10-16T04:57:56;3.07;;;1.70;;
17201;SDS011;8717;53.588;10.176;2022-10-16T05:00:23;3.73;;;2.00;;
17201;SDS011;8717;53.588;10.176;2022-10-16T05:02:50;3.80;;;1.70;;
17201;SDS011;8717;53.588;10.176;2022-10-16T05:05:18;4.53;;;1.90;;
17201;SDS011;8717;53.588;10.176;2022-10-16T05:07:45;3.77;;;1.80;;
17201;SDS011;8717;53.588;10.176;2022-10-16T05:10:12;6.47;;;2.23;;
17201;SDS011;8717;53.588;10.176;2022-10-16T05:12:39;3.43;;;1.93;;
17201;SDS011;8717;53.588;10.176;2022-10-16T05:15:06;3.47;;;2.17;;
17201;SDS011;8717;53.588;10.176;2022-10-16T05:17:33;5.07;;;2.50;;
17201;SDS011;8717;53.588;10.176;2022-10-16T05:20:00;3.17;;;1.77;;
17201;SDS011;8717;53.588;10.176;2022-10-16T05:22:28;3.83;;;2.00;;
17201;SDS011;8717;53.588;10.176;2022-10-16T05:24:55;3.70;;;1.80;;
17201;SDS011;8717;53.588;10.176;2022-10-16T05:27:22;4.83;;;2.10;;
17201;SDS011;8717;53.588;10.176;2022-10-16T05:29:49;5.80;;;1.90;;
17201;SDS011;8717;53.588;10.176;2022-10-16T05:32:15;7.40;;;2.23;;
17201;SDS011;8717;53.588;10.176;2022-10-16T05:34:44;4.17;;;1.83;;
17201;SDS011;8717;53.588;10.176;2022-10-16T05:37:11;6.77;;;2.37;;
17201;SDS011;8717;53.588;10.176;2022-10-16T05:39:39;5.60;;;2.20;;
17201;SDS011;8717;53.588;10.176;2022-10-16T05:42:06;3.90;;;1.93;;
17201;SDS011;8717;53.588;10.176;2022-10-16T05:44:33;6.53;;;2.40;;
17201;SDS011;8717;53.588;10.176;2022-10-16T05:46:59;4.13;;;2.00;;
17201;SDS011;8717;53.588;10.176;2022-10-16T05:49:26;7.63;;;2.60;;
17201;SDS011;8717;53.588;10.176;2022-10-16T05:51:53;4.43;;;2.20;;
17201;SDS011;8717;53.588;10.176;2022-10-16T05:54:20;5.20;;;1.83;;
17201;SDS011;8717;53.588;10.176;2022-10-16T05:56:48;6.10;;;2.13;;
17201;SDS011;8717;53.588;10.176;2022-10-16T05:59:14;3.60;;;1.83;;
17201;SDS011;8717;53.588;10.176;2022-10-16T06:01:41;4.07;;;2.63;;
17201;SDS011;8717;53.588;10.176;2022-10-16T06:04:08;3.33;;;2.17;;
17201;SDS011;8717;53.588;10.176;2022-10-16T06:06:35;5.87;;;2.70;;
17201;SDS011;8717;53.588;10.176;2022-10-16T06:09:02;3.20;;;2.07;;
17201;SDS011;8717;53.588;10.176;2022-10-16T06:11:30;5.40;;;2.03;;
17201;SDS011;8717;53.588;10.176;2022-10-16T06:14:01;5.83;;;2.43;;
17201;SDS011;8717;53.588;10.176;2022-10-16T06:16:31;5.07;;;2.07;;
17201;SDS011;8717;53.588;10.176;2022-10-16T06:18:58;5.80;;;2.13;;
17201;SDS011;8717;53.588;10.176;2022-10-16T06:21:26;4.07;;;1.80;;
17201;SDS011;8717;53.588;10.176;2022-10-16T06:23:54;4.90;;;2.17;;
17201;SDS011;8717;53.588;10.176;2022-10-16T06:26:24;9.20;;;3.57;;
17201;SDS011;8717;53.588;10.176;2022-10-16T06:28:53;3.97;;;2.07;;
17201;SDS011;8717;53.588;10.176;2022-10-16T06:31:21;13.13;;;5.30;;
17201;SDS011;8717;53.588;10.176;2022-10-16T06:33:52;9.17;;;3.50;;
17201;SDS011;8717;53.588;10.176;2022-10-16T06:36:19;6.03;;;3.23;;
17201;SDS011;8717;53.588;10.176;2022-10-16T06:38:46;4.07;;;2.47;;
17201;SDS011;8717;53.588;10.176;2022-10-16T06:41:14;4.70;;;2.20;;
17201;SDS011;8717;53.588;10.176;2022-10-16T06:43:41;4.80;;;2.30;;
17201;SDS011;8717;53.588;10.176;2022-10-16T06:46:10;4.47;;;2.10;;
17201;SDS011;8717;53.588;10.176;2022-10-16T06:48:39;4.83;;;1.80;;
17201;SDS011;8717;53.588;10.176;2022-10-16T06:51:06;3.07;;;2.20;;
17201;SDS011;8717;53.588;10.176;2022-10-16T06:53:35;7.33;;;2.67;;
17201;SDS011;8717;53.588;10.176;2022-10-16T06:56:07;2.60;;;2.30;;
17201;SDS011;8717;53.588;10.176;2022-10-16T06:58:34;6.57;;;2.40;;
17201;SDS011;8717;53.588;10.176;2022-10-16T07:01:00;2.30;;;1.93;;
17201;SDS011;8717;53.588;10.176;2022-10-16T07:03:27;4.60;;;2.30;;
17201;SDS011;8717;53.588;10.176;2022-10-16T07:05:55;5.97;;;2.70;;
17201;SDS011;8717;53.588;10.176;2022-10-16T07:08:22;4.10;;;2.30;;
17201;SDS011;8717;53.588;10.176;2022-10-16T07:10:49;5.03;;;2.40;;
17201;SDS011;8717;53.588;10.176;2022-10-16T07:13:24;4.80;;;2.53;;
17201;SDS011;8717;53.588;10.176;2022-10-16T07:15:51;6.17;;;3.00;;
17201;SDS011;8717;53.588;10.176;2022-10-16T07:18:17;7.70;;;2.47;;
17201;SDS011;8717;53.588;10.176;2022-10-16T07:20:44;5.97;;;3.00;;
17201;SDS011;8717;53.588;10.176;2022-10-16T07:23:12;4.70;;;2.60;;
17201;SDS011;8717;53.588;10.176;2022-10-16T07:25:39;4.50;;;2.47;;
17201;SDS011;8717;53.588;10.176;2022-10-16T07:28:05;5.07;;;2.80;;
17201;SDS011;8717;53.588;10.176;2022-10-16T07:30:34;4.67;;;2.47;;
17201;SDS011;8717;53.588;10.176;2022-10-16T07:33:02;4.30;;;2.33;;
17201;SDS011;8717;53.588;10.176;2022-10-16T07:35:32;4.97;;;2.67;;
17201;SDS011;8717;53.588;10.176;2022-10-16T07:38:00;7.40;;;3.23;;
17201;SDS011;8717;53.588;10.176;2022-10-16T07:40:28;10.07;;;3.20;;
17201;SDS011;8717;53.588;10.176;2022-10-16T07:42:55;6.37;;;3.00;;
17201;SDS011;8717;53.588;10.176;2022-10-16T07:45:22;4.73;;;2.60;;
17201;SDS011;8717;53.588;10.176;2022-10-16T07:47:48;5.90;;;2.90;;
17201;SDS011;8717;53.588;10.176;2022-10-16T07:50:15;4.87;;;2.30;;
17201;SDS011;8717;53.588;10.176;2022-10-16T07:52:42;6.60;;;2.70;;
17201;SDS011;8717;53.588;10.176;2022-10-16T07:55:08;4.67;;;2.60;;
17201;SDS011;8717;53.588;10.176;2022-10-16T07:57:36;3.87;;;2.60;;
17201;SDS011;8717;53.588;10.176;2022-10-16T08:00:03;3.60;;;2.50;;
17201;SDS011;8717;53.588;10.176;2022-10-16T08:02:37;7.67;;;2.80;;
17201;SDS011;8717;53.588;10.176;2022-10-16T08:05:04;5.10;;;2.63;;
17201;SDS011;8717;53.588;10.176;2022-10-16T08:07:32;3.30;;;2.27;;
17201;SDS011;8717;53.588;10.176;2022-10-16T08:09:58;3.73;;;2.90;;
17201;SDS011;8717;53.588;10.176;2022-10-16T08:12:25;3.50;;;2.47;;
17201;SDS011;8717;53.588;10.176;2022-10-16T08:14:53;5.80;;;2.50;;
17201;SDS011;8717;53.588;10.176;2022-10-16T08:17:20;3.37;;;2.30;;
17201;SDS011;8717;53.588;10.176;2022-10-16T08:19:46;4.70;;;2.53;;
17201;SDS011;8717;53.588;10.176;2022-10-16T08:22:14;4.93;;;2.60;;
17201;SDS011;8717;53.588;10.176;2022-10-16T08:24:41;4.10;;;2.47;;
17201;SDS011;8717;53.588;10.176;2022-10-16T08:27:07;4.10;;;2.47;;
17201;SDS011;8717;53.588;10.176;2022-10-16T08:29:35;3.57;;;2.20;;
17201;SDS011;8717;53.588;10.176;2022-10-16T08:32:04;5.27;;;2.50;;
17201;SDS011;8717;53.588;10.176;2022-10-16T08:34:31;4.30;;;2.10;;
17201;SDS011;8717;53.588;10.176;2022-10-16T08:36:58;4.70;;;2.10;;
17201;SDS011;8717;53.588;10.176;2022-10-16T08:39:24;4.87;;;2.07;;
17201;SDS011;8717;53.588;10.176;2022-10-16T08:42:10;2.67;;;1.80;;
17201;SDS011;8717;53.588;10.176;2022-10-16T08:44:47;2.73;;;1.93;;
17201;SDS011;8717;53.588;10.176;2022-10-16T08:47:33;4.10;;;1.67;;
17201;SDS011;8717;53.588;10.176;2022-10-16T08:50:10;2.10;;;1.67;;
17201;SDS011;8717;53.588;10.176;2022-10-16T08:52:40;5.60;;;1.70;;
17201;SDS011;8717;53.588;10.176;2022-10-16T08:55:11;4.37;;;1.73;;
17201;SDS011;8717;53.588;10.176;2022-10-16T08:57:51;5.37;;;1.60;;
17201;SDS011;8717;53.588;10.176;2022-10-16T09:00:17;3.70;;;1.50;;
17201;SDS011;8717;53.588;10.176;2022-10-16T09:02:48;2.20;;;1.50;;
17201;SDS011;8717;53.588;10.176;2022-10-16T09:05:30;3.17;;;1.60;;
17201;SDS011;8717;53.588;10.176;2022-10-16T09:08:28;3.17;;;1.73;;
17201;SDS011;8717;53.588;10.176;2022-10-16T09:11:03;2.97;;;1.63;;
17201;SDS011;8717;53.588;10.176;2022-10-16T09:13:40;5.87;;;1.70;;
17201;SDS011;8717;53.588;10.176;2022-10-16T09:16:14;3.83;;;1.43;;
17201;SDS011;8717;53.588;10.176;2022-10-16T09:18:50;3.70;;;1.27;;
17201;SDS011;8717;53.588;10.176;2022-10-16T09:21:23;3.07;;;1.17;;
17201;SDS011;8717;53.588;10.176;2022-10-16T09:23:51;3.90;;;1.40;;
17201;SDS011;8717;53.588;10.176;2022-10-16T09:26:23;3.97;;;1.30;;
17201;SDS011;8717;53.588;10.176;2022-10-16T09:28:51;3.37;;;1.30;;
17201;SDS011;8717;53.588;10.176;2022-10-16T09:31:19;1.97;;;1.40;;
17201;SDS011;8717;53.588;10.176;2022-10-16T09:33:48;2.30;;;1.37;;
17201;SDS011;8717;53.588;10.176;2022-10-16T09:36:20;2.63;;;1.40;;
17201;SDS011;8717;53.588;10.176;2022-10-16T09:38:47;2.37;;;1.00;;
17201;SDS011;8717;53.588;10.176;2022-10-16T09:41:16;3.23;;;1.20;;
17201;SDS011;8717;53.588;10.176;2022-10-16T09:43:48;3.23;;;1.40;;
17201;SDS011;8717;53.588;10.176;2022-10-16T09:46:24;3.50;;;1.10;;
17201;SDS011;8717;53.588;10.176;2022-10-16T09:48:55;3.47;;;1.10;;
17201;SDS011;8717;53.588;10.176;2022-10-16T09:51:24;2.72;;;1.15;;
17201;SDS011;8717;53.588;10.176;2022-10-16T09:53:56;2.72;;;0.98;;
17201;SDS011;8717;53.588;10.176;2022-10-16T09:56:26;2.28;;;0.85;;
17201;SDS011;8717;53.588;10.176;2022-10-16T09:58:54;3.97;;;1.10;;
17201;SDS011;8717;53.588;10.176;2022-10-16T10:01:23;3.13;;;1.10;;
17201;SDS011;8717;53.588;10.176;2022-10-16T10:03:56;2.35;;;1.05;;
17201;SDS011;8717;53.588;10.176;2022-10-16T10:06:29;2.30;;;1.35;;
17201;SDS011;8717;53.588;10.176;2022-10-16T10:08:59;4.30;;;1.25;;
17201;SDS011;8717;53.588;10.176;2022-10-16T10:11:43;2.55;;;1.05;;
17201;SDS011;8717;53.588;10.176;2022-10-16T10:14:15;1.77;;;0.93;;
17201;SDS011;8717;53.588;10.176;2022-10-16T10:16:45;3.22;;;1.20;;
17201;SDS011;8717;53.588;10.176;2022-10-16T10:19:14;2.67;;;1.10;;
17201;SDS011;8717;53.588;10.176;2022-10-16T10:21:42;3.85;;;1.30;;
17201;SDS011;8717;53.588;10.176;2022-10-16T10:24:12;1.65;;;0.90;;
17201;SDS011;8717;53.588;10.176;2022-10-16T10:26:41;2.13;;;0.85;;
17201;SDS011;8717;53.588;10.176;2022-10-16T10:29:15;2.13;;;1.10;;
17201;SDS011;8717;53.588;10.176;2022-10-16T10:31:50;2.95;;;1.17;;
17201;SDS011;8717;53.588;10.176;2022-10-16T10:34:33;4.40;;;1.30;;
17201;SDS011;8717;53.588;10.176;2022-10-16T10:37:27;3.63;;;1.40;;
17201;SDS011;8717;53.588;10.176;2022-10-16T10:40:06;2.72;;;1.10;;
17201;SDS011;8717;53.588;10.176;2022-10-16T10:42:51;2.60;;;1.20;;
17201;SDS011;8717;53.588;10.176;2022-10-16T10:45:26;3.97;;;1.40;;
17201;SDS011;8717;53.588;10.176;2022-10-16T10:47:57;4.22;;;1.73;;
17201;SDS011;8717;53.588;10.176;2022-10-16T10:50:35;4.93;;;1.20;;
17201;SDS011;8717;53.588;10.176;2022-10-16T10:53:09;3.55;;;1.25;;
17201;SDS011;8717;53.588;10.176;2022-10-16T10:55:45;2.47;;;1.27;;
17201;SDS011;8717;53.588;10.176;2022-10-16T10:58:22;2.65;;;0.93;;
17201;SDS011;8717;53.588;10.176;2022-10-16T11:01:07;2.28;;;0.88;;
17201;SDS011;8717;53.588;10.176;2022-10-16T11:03:45;5.10;;;1.40;;
17201;SDS011;8717;53.588;10.176;2022-10-16T11:06:26;3.33;;;1.00;;
17201;SDS011;8717;53.588;10.176;2022-10-16T11:08:57;2.72;;;0.93;;
17201;SDS011;8717;53.588;10.176;2022-10-16T11:11:29;4.25;;;1.30;;
17201;SDS011;8717;53.588;10.176;2022-10-16T11:14:02;4.28;;;1.02;;
17201;SDS011;8717;53.588;10.176;2022-10-16T11:16:34;3.58;;;1.20;;
17201;SDS011;8717;53.588;10.176;2022-10-16T11:19:10;2.63;;;1.00;;
17201;SDS011;8717;53.588;10.176;2022-10-16T11:21:43;2.60;;;0.82;;
17201;SDS011;8717;53.588;10.176;2022-10-16T11:24:16;2.28;;;0.95;;
17201;SDS011;8717;53.588;10.176;2022-10-16T11:26:46;2.17;;;0.70;;
17201;SDS011;8717;53.588;10.176;2022-10-16T11:29:16;1.98;;;0.88;;
17201;SDS011;8717;53.588;10.176;2022-10-16T11:31:49;2.67;;;1.35;;
17201;SDS011;8717;53.588;10.176;2022-10-16T11:34:21;4.03;;;0.90;;
17201;SDS011;8717;53.588;10.176;2022-10-16T11:36:55;3.05;;;0.80;;
17201;SDS011;8717;53.588;10.176;2022-10-16T11:39:25;2.22;;;1.00;;
17201;SDS011;8717;53.588;10.176;2022-10-16T11:41:54;5.00;;;0.90;;
17201;SDS011;8717;53.588;10.176;2022-10-16T11:44:33;2.00;;;0.97;;
17201;SDS011;8717;53.588;10.176;2022-10-16T11:47:10;2.65;;;0.90;;
17201;SDS011;8717;53.588;10.176;2022-10-16T11:49:45;2.63;;;0.93;;
17201;SDS011;8717;53.588;10.176;2022-10-16T11:52:19;4.78;;;0.80;;
17201;SDS011;8717;53.588;10.176;2022-10-16T11:54:52;3.67;;;1.02;;
17201;SDS011;8717;53.588;10.176;2022-10-16T11:57:23;3.03;;;1.00;;
17201;SDS011;8717;53.588;10.176;2022-10-16T11:59:54;2.20;;;0.90;;
17201;SDS011;8717;53.588;10.176;2022-10-16T12:02:37;3.20;;;1.00;;
17201;SDS011;8717;53.588;10.176;2022-10-16T12:05:15;2.40;;;0.80;;
17201;SDS011;8717;53.588;10.176;2022-10-16T12:07:51;3.67;;;0.85;;
17201;SDS011;8717;53.588;10.176;2022-10-16T12:10:28;3.00;;;1.00;;
17201;SDS011;8717;53.588;10.176;2022-10-16T12:12:57;3.70;;;1.20;;
17201;SDS011;8717;53.588;10.176;2022-10-16T12:15:24;4.53;;;1.37;;
17201;SDS011;8717;53.588;10.176;2022-10-16T12:17:52;2.03;;;0.87;;
17201;SDS011;8717;53.588;10.176;2022-10-16T12:20:25;2.17;;;1.10;;
17201;SDS011;8717;53.588;10.176;2022-10-16T12:22:57;4.00;;;1.10;;
17201;SDS011;8717;53.588;10.176;2022-10-16T12:25:27;4.20;;;1.07;;
17201;SDS011;8717;53.588;10.176;2022-10-16T12:28:00;1.90;;;0.80;;
17201;SDS011;8717;53.588;10.176;2022-10-16T12:30:29;3.22;;;0.90;;
17201;SDS011;8717;53.588;10.176;2022-10-16T12:32:58;2.28;;;0.95;;
17201;SDS011;8717;53.588;10.176;2022-10-16T12:35:28;2.07;;;1.23;;
17201;SDS011;8717;53.588;10.176;2022-10-16T12:38:06;2.60;;;0.80;;
17201;SDS011;8717;53.588;10.176;2022-10-16T12:40:35;3.57;;;0.97;;
17201;SDS011;8717;53.588;10.176;2022-10-16T12:43:23;5.65;;;1.30;;
17201;SDS011;8717;53.588;10.176;2022-10-16T12:45:59;5.25;;;1.00;;
17201;SDS011;8717;53.588;10.176;2022-10-16T12:48:31;2.28;;;0.90;;
17201;SDS011;8717;53.588;10.176;2022-10-16T12:51:08;4.15;;;1.08;;
17201;SDS011;8717;53.588;10.176;2022-10-16T12:53:38;5.00;;;1.55;;
17201;SDS011;8717;53.588;10.176;2022-10-16T12:56:08;2.58;;;1.02;;
17201;SDS011;8717;53.588;10.176;2022-10-16T12:58:48;2.33;;;1.00;;
17201;SDS011;8717;53.588;10.176;2022-10-16T13:01:31;1.67;;;0.90;;
17201;SDS011;8717;53.588;10.176;2022-10-16T13:06:55;4.68;;;1.00;;
17201;SDS011;8717;53.588;10.176;2022-10-16T13:09:32;3.70;;;1.15;;
17201;SDS011;8717;53.588;10.176;2022-10-16T13:12:17;3.83;;;1.25;;
17201;SDS011;8717;53.588;10.176;2022-10-16T13:15:13;3.42;;;0.98;;
17201;SDS011;8717;53.588;10.176;2022-10-16T13:17:53;2.85;;;0.93;;
17201;SDS011;8717;53.588;10.176;2022-10-16T13:20:29;4.00;;;1.30;;
17201;SDS011;8717;53.588;10.176;2022-10-16T13:23:02;3.43;;;1.10;;
17201;SDS011;8717;53.588;10.176;2022-10-16T13:25:42;3.03;;;0.90;;
17201;SDS011;8717;53.588;10.176;2022-10-16T13:28:21;3.70;;;1.13;;
17201;SDS011;8717;53.588;10.176;2022-10-16T13:30:53;3.70;;;1.13;;
17201;SDS011;8717;53.588;10.176;2022-10-16T13:33:24;2.47;;;1.20;;
17201;SDS011;8717;53.588;10.176;2022-10-16T13:35:57;9.07;;;1.48;;
17201;SDS011;8717;53.588;10.176;2022-10-16T13:38:25;4.05;;;1.30;;
17201;SDS011;8717;53.588;10.176;2022-10-16T13:40:55;4.67;;;1.50;;
17201;SDS011;8717;53.588;10.176;2022-10-16T13:46:00;3.30;;;1.30;;
17201;SDS011;8717;53.588;10.176;2022-10-16T13:48:28;3.27;;;1.20;;
17201;SDS011;8717;53.588;10.176;2022-10-16T13:50:59;4.93;;;1.20;;
17201;SDS011;8717;53.588;10.176;2022-10-16T13:53:29;8.40;;;1.50;;
17201;SDS011;8717;53.588;10.176;2022-10-16T13:55:59;6.07;;;1.07;;
17201;SDS011;8717;53.588;10.176;2022-10-16T13:58:28;11.33;;;1.53;;
17201;SDS011;8717;53.588;10.176;2022-10-16T14:00:55;4.20;;;1.20;;
17201;SDS011;8717;53.588;10.176;2022-10-16T14:03:24;3.05;;;0.90;;
17201;SDS011;8717;53.588;10.176;2022-10-16T14:05:52;3.27;;;1.10;;
17201;SDS011;8717;53.588;10.176;2022-10-16T14:08:21;3.20;;;1.30;;
17201;SDS011;8717;53.588;10.176;2022-10-16T14:10:50;4.17;;;1.10;;
17201;SDS011;8717;53.588;10.176;2022-10-16T14:13:22;2.53;;;0.73;;
17201;SDS011;8717;53.588;10.176;2022-10-16T14:15:55;3.33;;;1.20;;
17201;SDS011;8717;53.588;10.176;2022-10-16T14:18:26;3.63;;;1.40;;
17201;SDS011;8717;53.588;10.176;2022-10-16T14:20:54;5.17;;;1.30;;
17201;SDS011;8717;53.588;10.176;2022-10-16T14:23:29;4.70;;;1.00;;
17201;SDS011;8717;53.588;10.176;2022-10-16T14:26:05;2.60;;;1.00;;
17201;SDS011;8717;53.588;10.176;2022-10-16T14:28:44;5.00;;;1.03;;
17201;SDS011;8717;53.588;10.176;2022-10-16T14:31:21;2.77;;;1.00;;
17201;SDS011;8717;53.588;10.176;2022-10-16T14:33:54;4.87;;;1.13;;
17201;SDS011;8717;53.588;10.176;2022-10-16T14:36:27;3.83;;;1.20;;
17201;SDS011;8717;53.588;10.176;2022-10-16T14:38:57;4.27;;;1.17;;
17201;SDS011;8717;53.588;10.176;2022-10-16T14:41:26;4.47;;;1.10;;
17201;SDS011;8717;53.588;10.176;2022-10-16T14:43:56;3.00;;;1.00;;
17201;SDS011;8717;53.588;10.176;2022-10-16T14:46:28;5.77;;;1.50;;
17201;SDS011;8717;53.588;10.176;2022-10-16T14:48:59;3.27;;;1.20;;
17201;SDS011;8717;53.588;10.176;2022-10-16T14:51:29;4.37;;;1.10;;
17201;SDS011;8717;53.588;10.176;2022-10-16T14:53:56;4.27;;;0.97;;
17201;SDS011;8717;53.588;10.176;2022-10-16T14:56:24;3.97;;;1.10;;
17201;SDS011;8717;53.588;10.176;2022-10-16T14:58:52;3.43;;;0.93;;
17201;SDS011;8717;53.588;10.176;2022-10-16T15:01:21;5.43;;;1.30;;
17201;SDS011;8717;53.588;10.176;2022-10-16T15:03:47;4.53;;;1.10;;
17201;SDS011;8717;53.588;10.176;2022-10-16T15:06:17;5.80;;;1.37;;
17201;SDS011;8717;53.588;10.176;2022-10-16T15:08:44;3.40;;;1.00;;
17201;SDS011;8717;53.588;10.176;2022-10-16T15:11:14;3.37;;;1.20;;